createdAt,value
2023-02-06T00:00:51.391Z,14.77
2023-02-06T00:03:19.970Z,8.43
2023-02-06T00:05:57.261Z,6.38
2023-02-06T00:08:24.408Z,14.77
2023-02-06T00:10:50.926Z,6.22
2023-02-06T00:13:17.841Z,8.90
2023-02-06T00:15:44.822Z,10.60
2023-02-06T00:18:11.591Z,13.00
2023-02-06T00:20:38.764Z,4.50
2023-02-06T00:23:05.426Z,11.15
2023-02-06T00:25:32.080Z,6.85
2023-02-06T00:27:58.811Z,14.63
2023-02-06T00:30:25.343Z,5.95
2023-02-06T00:32:52.096Z,9.40
2023-02-06T00:35:18.757Z,7.20
2023-02-06T00:37:45.882Z,13.27
2023-02-06T00:40:12.750Z,4.90
2023-02-06T00:42:39.391Z,5.22
2023-02-06T00:45:06.898Z,9.85
2023-02-06T00:47:35.454Z,11.52
2023-02-06T00:50:03.700Z,15.25
2023-02-06T00:52:30.474Z,13.32
2023-02-06T00:54:57.038Z,9.65
2023-02-06T00:57:23.714Z,9.75
2023-02-06T00:59:50.260Z,9.10
2023-02-06T01:02:16.923Z,5.50
2023-02-06T01:04:43.524Z,5.68
2023-02-06T01:07:10.467Z,8.30
2023-02-06T01:09:37.139Z,9.70
2023-02-06T01:12:03.836Z,6.38
2023-02-06T01:14:30.571Z,2.25
2023-02-06T01:16:57.191Z,14.05
2023-02-06T01:19:26.713Z,3.95
2023-02-06T01:21:53.370Z,9.98
2023-02-06T01:24:19.858Z,15.27
2023-02-06T01:26:46.471Z,8.10
2023-02-06T01:29:13.072Z,10.45
2023-02-06T01:31:40.728Z,10.35
2023-02-06T01:34:08.028Z,13.10
2023-02-06T01:36:35.727Z,13.82
2023-02-06T01:39:02.303Z,8.15
2023-02-06T01:41:29.215Z,7.43
2023-02-06T01:44:13.018Z,10.27
2023-02-06T01:46:41.162Z,6.85
2023-02-06T01:49:12.180Z,7.38
2023-02-06T01:51:39.720Z,6.65
2023-02-06T01:54:08.900Z,6.85
2023-02-06T01:56:47.036Z,9.90
2023-02-06T01:59:14.188Z,4.38
2023-02-06T02:01:41.776Z,10.48
2023-02-06T02:04:16.247Z,15.88
2023-02-06T02:06:43.126Z,8.63
2023-02-06T02:09:09.736Z,9.52
2023-02-06T02:11:41.678Z,19.42
2023-02-06T02:14:12.421Z,16.23
2023-02-06T02:17:01.028Z,6.05
2023-02-06T02:19:33.689Z,10.20
2023-02-06T02:22:25.105Z,15.52
2023-02-06T02:25:17.988Z,7.75
2023-02-06T02:27:50.371Z,10.50
2023-02-06T02:31:05.181Z,9.23
2023-02-06T02:38:30.559Z,9.65
2023-02-06T02:41:13.174Z,12.98
2023-02-06T02:44:15.790Z,13.00
2023-02-06T02:46:51.950Z,13.90
2023-02-06T02:49:23.694Z,9.60
2023-02-06T02:51:51.571Z,5.75
2023-02-06T02:54:18.546Z,11.05
2023-02-06T02:56:45.393Z,5.95
2023-02-06T02:59:28.778Z,5.60
2023-02-06T03:02:04.575Z,21.80
2023-02-06T03:04:37.625Z,4.90
2023-02-06T03:07:32.463Z,12.98
2023-02-06T03:10:13.382Z,6.07
2023-02-06T03:12:45.029Z,18.20
2023-02-06T03:15:31.032Z,12.98
2023-02-06T03:18:12.801Z,8.38
2023-02-06T03:20:43.510Z,13.27
2023-02-06T03:23:14.585Z,5.45
2023-02-06T03:25:45.102Z,10.00
2023-02-06T03:28:20.465Z,11.77
2023-02-06T03:33:19.027Z,17.83
2023-02-06T03:35:46.365Z,8.38
2023-02-06T03:38:13.712Z,22.00
2023-02-06T03:40:44.558Z,12.30
2023-02-06T03:43:18.442Z,10.63
2023-02-06T03:45:52.433Z,8.60
2023-02-06T03:48:23.808Z,13.93
2023-02-06T03:50:54.206Z,8.68
2023-02-06T03:53:24.573Z,12.48
2023-02-06T03:55:57.796Z,10.20
2023-02-06T03:58:24.855Z,6.68
2023-02-06T04:00:52.353Z,7.30
2023-02-06T04:03:21.394Z,9.27
2023-02-06T04:05:48.351Z,8.05
2023-02-06T04:08:15.307Z,8.45
2023-02-06T04:10:41.902Z,6.47
2023-02-06T04:13:08.440Z,8.98
2023-02-06T04:15:35.317Z,7.90
2023-02-06T04:18:02.827Z,8.55
2023-02-06T04:20:30.238Z,7.03
2023-02-06T04:22:57.878Z,11.25
2023-02-06T04:25:24.951Z,7.53
2023-02-06T04:27:51.705Z,13.80
2023-02-06T04:30:18.683Z,5.55
2023-02-06T04:32:45.401Z,8.02
2023-02-06T04:35:11.988Z,9.60
2023-02-06T04:37:38.737Z,10.93
2023-02-06T04:40:05.797Z,15.90
2023-02-06T04:42:32.488Z,10.60
2023-02-06T04:44:59.021Z,10.45
2023-02-06T04:47:25.678Z,14.57
2023-02-06T04:49:52.270Z,12.65
2023-02-06T04:52:18.837Z,10.20
2023-02-06T04:54:45.338Z,8.18
2023-02-06T04:57:11.910Z,4.53
2023-02-06T04:59:38.421Z,6.78
2023-02-06T05:02:05.122Z,4.13
2023-02-06T05:04:31.673Z,15.05
2023-02-06T05:06:58.414Z,5.72
2023-02-06T05:09:24.902Z,4.88
2023-02-06T05:11:51.503Z,4.57
2023-02-06T05:14:18.054Z,5.15
2023-02-06T05:16:45.106Z,2.22
2023-02-06T05:19:11.613Z,3.42
2023-02-06T05:21:38.274Z,2.85
2023-02-06T05:24:05.192Z,3.72
2023-02-06T05:26:31.806Z,6.50
2023-02-06T05:28:58.446Z,2.80
2023-02-06T05:31:25.101Z,3.38
2023-02-06T05:33:52.454Z,4.53
2023-02-06T05:36:20.161Z,4.53
2023-02-06T05:38:47.421Z,5.70
2023-02-06T05:41:14.598Z,7.38
2023-02-06T05:43:41.370Z,4.00
2023-02-06T05:46:07.996Z,6.20
2023-02-06T05:48:35.140Z,3.10
2023-02-06T05:51:02.097Z,4.95
2023-02-06T05:53:28.672Z,6.35
2023-02-06T05:55:56.095Z,7.30
2023-02-06T05:58:22.782Z,7.05
2023-02-06T06:00:49.329Z,5.43
2023-02-06T06:03:15.954Z,6.10
2023-02-06T06:05:42.704Z,5.82
2023-02-06T06:08:09.234Z,4.95
2023-02-06T06:10:35.861Z,8.23
2023-02-06T06:13:02.461Z,6.13
2023-02-06T06:15:29.102Z,6.90
2023-02-06T06:17:55.908Z,6.18
2023-02-06T06:20:22.983Z,16.52
2023-02-06T06:22:49.594Z,6.63
2023-02-06T06:25:16.729Z,6.78
2023-02-06T06:27:43.560Z,4.35
2023-02-06T06:30:10.955Z,5.25
2023-02-06T06:32:37.470Z,4.28
2023-02-06T06:35:04.909Z,5.10
2023-02-06T06:37:31.481Z,8.45
2023-02-06T06:39:58.063Z,4.10
2023-02-06T06:42:24.623Z,6.25
2023-02-06T06:44:51.134Z,7.45
2023-02-06T06:47:17.605Z,4.50
2023-02-06T06:49:44.118Z,7.25
2023-02-06T06:52:23.035Z,3.92
2023-02-06T06:54:52.508Z,6.72
2023-02-06T06:57:19.833Z,4.47
2023-02-06T06:59:46.478Z,3.95
2023-02-06T07:02:13.003Z,4.68
2023-02-06T07:04:39.765Z,5.45
2023-02-06T07:07:06.377Z,5.05
2023-02-06T07:09:32.926Z,3.42
2023-02-06T07:11:59.501Z,7.43
2023-02-06T07:14:26.128Z,4.78
2023-02-06T07:16:52.713Z,6.70
2023-02-06T07:19:19.432Z,4.63
2023-02-06T07:21:46.051Z,4.03
2023-02-06T07:24:12.571Z,4.30
2023-02-06T07:26:39.126Z,5.95
2023-02-06T07:29:06.142Z,3.80
2023-02-06T07:31:32.728Z,3.63
2023-02-06T07:34:00.046Z,4.57
2023-02-06T07:36:26.533Z,4.28
2023-02-06T07:38:53.174Z,5.85
2023-02-06T07:41:19.671Z,5.35
2023-02-06T07:43:46.307Z,5.57
2023-02-06T07:46:13.031Z,7.80
2023-02-06T07:48:39.673Z,5.10
2023-02-06T07:51:08.572Z,6.80
2023-02-06T07:53:35.777Z,5.32
2023-02-06T07:56:02.746Z,4.50
2023-02-06T07:58:29.299Z,8.52
2023-02-06T08:00:56.101Z,7.10
2023-02-06T08:03:22.697Z,5.18
2023-02-06T08:05:49.218Z,11.40
2023-02-06T08:08:15.739Z,9.20
2023-02-06T08:10:42.267Z,7.00
2023-02-06T08:13:08.816Z,7.30
2023-02-06T08:15:35.710Z,9.57
2023-02-06T08:18:02.394Z,11.10
2023-02-06T08:20:28.849Z,8.50
2023-02-06T08:22:55.494Z,10.40
2023-02-06T08:25:22.098Z,12.13
2023-02-06T08:27:53.559Z,13.15
2023-02-06T08:30:21.032Z,10.63
2023-02-06T08:32:47.661Z,15.85
2023-02-06T08:35:14.390Z,9.85
2023-02-06T08:37:40.867Z,13.00
2023-02-06T08:40:08.775Z,18.95
2023-02-06T08:42:35.907Z,13.95
2023-02-06T08:45:02.626Z,12.32
2023-02-06T08:47:29.229Z,13.50
2023-02-06T08:49:55.922Z,16.17
2023-02-06T08:52:23.209Z,9.05
2023-02-06T08:54:51.631Z,10.20
2023-02-06T08:57:18.299Z,10.90
2023-02-06T08:59:45.062Z,7.68
2023-02-06T09:02:11.725Z,16.33
2023-02-06T09:04:39.178Z,10.05
2023-02-06T09:07:06.007Z,5.70
2023-02-06T09:09:32.638Z,7.95
2023-02-06T09:12:03.573Z,8.43
2023-02-06T09:14:30.889Z,10.65
2023-02-06T09:16:58.152Z,5.40
2023-02-06T09:19:25.992Z,11.10
2023-02-06T09:21:53.564Z,11.43
2023-02-06T09:24:20.494Z,12.98
2023-02-06T09:26:59.337Z,7.82
2023-02-06T09:29:31.948Z,8.52
2023-02-06T09:31:59.641Z,5.07
2023-02-06T09:34:28.096Z,8.57
2023-02-06T09:36:56.625Z,11.45
2023-02-06T09:39:24.524Z,6.50
2023-02-06T09:41:55.192Z,8.95
2023-02-06T09:44:31.757Z,7.40
2023-02-06T09:47:17.043Z,8.13
2023-02-06T09:49:48.937Z,10.85
2023-02-06T09:52:35.251Z,15.45
2023-02-06T09:55:23.277Z,6.50
2023-02-06T09:58:03.974Z,6.85
2023-02-06T10:00:43.622Z,5.53
2023-02-06T10:03:32.026Z,6.85
2023-02-06T10:06:19.517Z,9.88
2023-02-06T10:08:58.647Z,10.85
2023-02-06T10:11:51.161Z,10.52
2023-02-06T10:14:56.833Z,10.07
2023-02-06T10:17:27.126Z,11.63
2023-02-06T10:20:12.575Z,10.50
2023-02-06T10:23:02.182Z,11.90
2023-02-06T10:25:37.521Z,8.82
2023-02-06T10:28:24.115Z,16.70
2023-02-06T10:31:19.882Z,11.57
2023-02-06T10:33:58.678Z,10.43
2023-02-06T10:37:10.302Z,12.35
2023-02-06T10:40:01.727Z,10.82
2023-02-06T10:42:28.399Z,15.48
2023-02-06T10:45:21.015Z,9.57
2023-02-06T10:48:21.783Z,6.50
2023-02-06T10:50:54.065Z,10.18
2023-02-06T10:53:46.781Z,13.20
2023-02-06T10:56:16.940Z,9.48
2023-02-06T10:58:53.241Z,14.45
2023-02-06T11:01:26.456Z,12.45
2023-02-06T11:04:03.482Z,10.57
2023-02-06T11:06:31.591Z,11.00
2023-02-06T11:08:58.667Z,15.50
2023-02-06T11:11:32.186Z,7.70
2023-02-06T11:14:05.088Z,7.43
2023-02-06T11:16:35.321Z,9.60
2023-02-06T11:19:16.244Z,17.35
2023-02-06T11:21:52.840Z,7.43
2023-02-06T11:24:23.606Z,9.45
2023-02-06T11:26:55.384Z,7.82
2023-02-06T11:29:26.407Z,7.03
2023-02-06T11:31:59.100Z,11.00
2023-02-06T11:34:32.762Z,5.78
2023-02-06T11:37:01.122Z,12.07
2023-02-06T11:39:39.287Z,10.70
2023-02-06T11:42:13.443Z,4.68
2023-02-06T11:44:44.044Z,12.55
2023-02-06T11:47:33.301Z,14.77
2023-02-06T11:50:22.402Z,6.03
2023-02-06T11:52:49.103Z,11.50
2023-02-06T11:55:30.661Z,10.43
2023-02-06T11:58:01.603Z,11.50
2023-02-06T12:00:28.818Z,9.35
2023-02-06T12:02:55.691Z,12.75
2023-02-06T12:05:26.530Z,10.48
2023-02-06T12:08:02.223Z,17.88
2023-02-06T12:10:33.026Z,11.10
2023-02-06T12:13:12.978Z,10.25
2023-02-06T12:15:47.286Z,14.80
2023-02-06T12:18:20.504Z,9.48
2023-02-06T12:20:52.861Z,13.80
2023-02-06T12:23:25.702Z,20.90
2023-02-06T12:25:57.553Z,10.60
2023-02-06T12:28:30.401Z,13.43
2023-02-06T12:31:04.810Z,19.27
2023-02-06T12:33:42.601Z,20.80
2023-02-06T12:36:34.026Z,16.95
2023-02-06T12:39:22.410Z,19.52
2023-02-06T12:42:27.729Z,15.13
2023-02-06T12:45:20.024Z,16.02
2023-02-06T12:47:53.323Z,17.70
2023-02-06T12:50:33.962Z,24.17
2023-02-06T12:53:12.429Z,22.02
2023-02-06T12:55:49.957Z,24.88
2023-02-06T12:58:50.514Z,19.35
2023-02-06T13:01:40.165Z,25.70
2023-02-06T13:04:23.483Z,23.25
2023-02-06T13:06:56.490Z,30.23
2023-02-06T13:09:30.503Z,29.58
2023-02-06T13:12:19.452Z,29.02
2023-02-06T13:14:52.696Z,22.77
2023-02-06T13:17:31.518Z,25.27
2023-02-06T13:20:15.212Z,23.77
2023-02-06T13:22:50.986Z,37.28
2023-02-06T13:25:29.558Z,24.95
2023-02-06T13:28:01.167Z,34.28
2023-02-06T13:30:31.051Z,37.25
2023-02-06T13:33:08.584Z,43.97
2023-02-06T13:35:35.571Z,28.98
2023-02-06T13:38:24.077Z,34.45
2023-02-06T13:41:12.284Z,23.23
2023-02-06T13:43:41.089Z,29.83
2023-02-06T13:46:12.869Z,27.13
2023-02-06T13:48:54.892Z,30.88
2023-02-06T13:51:46.768Z,23.48
2023-02-06T13:54:50.528Z,26.05
2023-02-06T13:57:50.463Z,25.95
2023-02-06T14:00:23.405Z,17.35
2023-02-06T14:02:54.205Z,22.90
2023-02-06T14:05:31.217Z,15.60
2023-02-06T14:08:12.478Z,17.77
2023-02-06T14:11:19.218Z,23.50
2023-02-06T14:14:17.173Z,13.38
2023-02-06T14:16:53.234Z,10.48
2023-02-06T14:20:07.720Z,10.50
2023-02-06T14:22:50.995Z,8.60
2023-02-06T14:25:47.013Z,9.85
2023-02-06T14:28:39.651Z,9.52
2023-02-06T14:31:14.939Z,8.43
2023-02-06T14:34:07.439Z,13.00
2023-02-06T14:36:37.030Z,8.13
2023-02-06T14:39:41.238Z,13.05
2023-02-06T14:42:22.545Z,12.40
2023-02-06T14:44:56.927Z,8.73
2023-02-06T14:47:27.920Z,10.82
2023-02-06T14:49:56.490Z,11.40
2023-02-06T14:52:26.212Z,9.90
2023-02-06T14:54:53.171Z,11.35
2023-02-06T14:57:27.666Z,8.15
2023-02-06T15:00:01.345Z,10.70
2023-02-06T15:02:34.091Z,18.42
2023-02-06T15:05:02.193Z,14.35
2023-02-06T15:07:37.449Z,7.70
2023-02-06T15:10:07.552Z,9.30
2023-02-06T15:12:34.986Z,11.13
2023-02-06T15:15:16.363Z,7.78
2023-02-06T15:17:43.781Z,10.32
2023-02-06T15:20:34.565Z,9.35
2023-02-06T15:23:18.153Z,8.23
2023-02-06T15:25:54.070Z,6.90
2023-02-06T15:28:25.534Z,9.43
2023-02-06T15:30:58.812Z,10.23
2023-02-06T15:33:28.919Z,10.65
2023-02-06T15:35:58.989Z,9.43
2023-02-06T15:38:27.752Z,7.10
2023-02-06T15:41:06.970Z,8.27
2023-02-06T15:43:35.826Z,5.15
2023-02-06T15:46:05.271Z,8.18
2023-02-06T15:48:43.619Z,7.82
2023-02-06T15:51:27.991Z,9.90
2023-02-06T15:54:16.482Z,10.10
2023-02-06T15:56:46.912Z,10.52
2023-02-06T15:59:20.788Z,9.07
2023-02-06T16:01:48.753Z,7.18
2023-02-06T16:04:32.259Z,4.55
2023-02-06T16:07:13.742Z,15.77
2023-02-06T16:09:52.612Z,6.57
2023-02-06T16:12:21.206Z,9.70
2023-02-06T16:15:01.680Z,6.43
2023-02-06T16:17:34.417Z,5.45
2023-02-06T16:20:07.499Z,6.68
2023-02-06T16:22:38.164Z,11.93
2023-02-06T16:25:21.467Z,9.52
2023-02-06T16:27:51.119Z,4.72
2023-02-06T16:30:30.894Z,10.15
2023-02-06T16:33:00.579Z,8.82
2023-02-06T16:35:27.107Z,5.10
2023-02-06T16:37:54.795Z,6.45
2023-02-06T16:40:21.487Z,6.10
2023-02-06T16:42:48.076Z,8.43
2023-02-06T16:45:18.987Z,5.40
2023-02-06T16:47:46.197Z,9.32
2023-02-06T16:50:13.586Z,10.88
2023-02-06T16:52:45.819Z,7.13
2023-02-06T16:55:23.481Z,9.80
2023-02-06T16:57:53.908Z,9.07
2023-02-06T17:00:24.603Z,8.32
2023-02-06T17:02:52.249Z,14.38
2023-02-06T17:05:21.688Z,8.52
2023-02-06T17:07:51.186Z,7.28
2023-02-06T17:10:21.180Z,3.60
2023-02-06T17:12:48.648Z,9.35
2023-02-06T17:15:17.539Z,8.35
2023-02-06T17:17:44.506Z,7.68
2023-02-06T17:20:29.152Z,7.00
2023-02-06T17:22:55.752Z,9.55
2023-02-06T17:25:22.287Z,6.75
2023-02-06T17:27:48.888Z,7.55
2023-02-06T17:30:21.430Z,8.73
2023-02-06T17:32:48.214Z,7.15
2023-02-06T17:35:15.290Z,8.20
2023-02-06T17:37:42.155Z,6.28
2023-02-06T17:40:11.550Z,8.15
2023-02-06T17:42:38.282Z,11.68
2023-02-06T17:45:05.199Z,8.35
2023-02-06T17:47:31.745Z,12.48
2023-02-06T17:49:58.503Z,3.70
2023-02-06T17:52:25.124Z,13.68
2023-02-06T17:54:52.456Z,10.55
2023-02-06T17:57:19.188Z,5.55
2023-02-06T17:59:45.769Z,5.35
2023-02-06T18:02:14.212Z,5.90
2023-02-06T18:04:41.217Z,7.82
2023-02-06T18:07:08.097Z,8.63
2023-02-06T18:09:34.598Z,8.35
2023-02-06T18:12:01.201Z,3.78
2023-02-06T18:14:27.838Z,6.22
2023-02-06T18:16:54.432Z,10.70
2023-02-06T18:19:24.672Z,10.50
2023-02-06T18:21:51.542Z,13.90
2023-02-06T18:24:18.154Z,9.60
2023-02-06T18:26:44.783Z,14.05
2023-02-06T18:29:11.393Z,20.85
2023-02-06T18:31:38.551Z,20.50
2023-02-06T18:34:07.970Z,6.97
2023-02-06T18:36:36.194Z,15.88
2023-02-06T18:39:04.077Z,16.15
2023-02-06T18:41:49.088Z,12.43
2023-02-06T18:44:16.039Z,9.57
2023-02-06T18:46:42.777Z,10.32
2023-02-06T18:49:09.393Z,13.88
2023-02-06T18:51:35.912Z,9.80
2023-02-06T18:54:03.292Z,11.10
2023-02-06T18:56:30.593Z,11.80
2023-02-06T18:58:57.168Z,18.33
2023-02-06T19:01:24.806Z,14.50
2023-02-06T19:03:53.085Z,10.23
2023-02-06T19:06:28.801Z,24.02
2023-02-06T19:08:56.916Z,24.52
2023-02-06T19:11:24.050Z,19.85
2023-02-06T19:13:50.766Z,15.32
2023-02-06T19:16:19.608Z,15.80
2023-02-06T19:18:48.129Z,9.82
2023-02-06T19:21:17.956Z,12.27
2023-02-06T19:23:46.513Z,14.63
2023-02-06T19:26:15.650Z,11.35
2023-02-06T19:28:43.193Z,14.73
2023-02-06T19:31:11.785Z,8.10
2023-02-06T19:33:40.709Z,9.43
2023-02-06T19:36:12.066Z,17.77
2023-02-06T19:38:39.510Z,12.10
2023-02-06T19:41:14.890Z,13.70
2023-02-06T19:46:12.519Z,6.90
2023-02-06T19:48:42.020Z,14.77
2023-02-06T19:51:12.344Z,9.30
2023-02-06T19:53:45.195Z,12.73
2023-02-06T19:56:14.134Z,11.02
2023-02-06T19:58:41.705Z,7.88
2023-02-06T20:01:13.366Z,6.97
2023-02-06T20:03:40.415Z,8.10
2023-02-06T20:06:11.380Z,10.77
2023-02-06T20:08:39.912Z,9.05
2023-02-06T20:11:13.339Z,7.43
2023-02-06T20:13:41.045Z,8.05
2023-02-06T20:16:17.936Z,12.13
2023-02-06T20:18:45.322Z,12.75
2023-02-06T20:21:31.282Z,9.93
2023-02-06T20:26:29.300Z,6.25
2023-02-06T20:28:56.331Z,6.20
2023-02-06T20:31:23.278Z,9.32
2023-02-06T20:33:50.165Z,10.52
2023-02-06T20:36:21.827Z,8.82
2023-02-06T20:38:50.637Z,8.73
2023-02-06T20:41:18.480Z,10.27
2023-02-06T20:43:47.827Z,9.07
2023-02-06T20:46:18.024Z,13.52
2023-02-06T20:48:46.561Z,9.38
2023-02-06T20:51:14.511Z,14.15
2023-02-06T20:53:41.108Z,14.50
2023-02-06T20:56:12.274Z,13.15
2023-02-06T20:58:39.157Z,6.10
2023-02-06T21:01:16.615Z,10.52
2023-02-06T21:03:45.065Z,11.05
2023-02-06T21:06:12.243Z,12.18
2023-02-06T21:08:38.973Z,11.25
2023-02-06T21:11:08.576Z,9.00
2023-02-06T21:13:35.336Z,12.60
2023-02-06T21:16:02.537Z,10.93
2023-02-06T21:18:31.328Z,14.63
2023-02-06T21:21:09.361Z,10.63
2023-02-06T21:23:37.469Z,14.07
2023-02-06T21:26:05.107Z,10.88
2023-02-06T21:28:33.528Z,18.13
2023-02-06T21:31:06.377Z,9.30
2023-02-06T21:33:33.633Z,11.25
2023-02-06T21:36:02.034Z,10.98
2023-02-06T21:38:29.055Z,10.68
2023-02-06T21:40:55.564Z,10.75
2023-02-06T21:43:22.147Z,10.50
2023-02-06T21:45:48.713Z,13.82
2023-02-06T21:48:15.418Z,9.88
2023-02-06T21:50:42.004Z,14.23
2023-02-06T21:53:09.352Z,15.07
2023-02-06T21:55:42.194Z,14.20
2023-02-06T21:58:09.373Z,9.45
2023-02-06T22:00:35.947Z,11.60
2023-02-06T22:03:03.105Z,7.05
2023-02-06T22:05:29.886Z,8.32
2023-02-06T22:07:58.217Z,13.07
2023-02-06T22:10:24.985Z,12.95
2023-02-06T22:12:51.645Z,12.88
2023-02-06T22:15:18.522Z,13.18
2023-02-06T22:17:45.127Z,9.82
2023-02-06T22:20:11.627Z,13.57
2023-02-06T22:22:38.632Z,10.27
2023-02-06T22:25:05.652Z,12.82
2023-02-06T22:27:32.830Z,14.48
2023-02-06T22:29:59.354Z,12.05
2023-02-06T22:32:26.019Z,10.65
2023-02-06T22:34:53.842Z,11.45
2023-02-06T22:37:20.796Z,12.27
2023-02-06T22:39:47.396Z,14.98
2023-02-06T22:42:13.949Z,11.43
2023-02-06T22:44:40.448Z,9.95
2023-02-06T22:47:07.133Z,8.50
2023-02-06T22:49:33.751Z,16.08
2023-02-06T22:52:00.275Z,13.07
2023-02-06T22:54:26.940Z,11.10
2023-02-06T22:56:53.599Z,7.95
2023-02-06T22:59:24.158Z,19.65
2023-02-06T23:01:58.628Z,8.85
2023-02-06T23:04:28.412Z,16.40
2023-02-06T23:06:55.778Z,11.18
2023-02-06T23:09:31.695Z,13.95
2023-02-06T23:11:58.736Z,9.55
2023-02-06T23:14:26.226Z,8.40
2023-02-06T23:16:52.918Z,12.68
2023-02-06T23:19:20.379Z,16.63
2023-02-06T23:21:48.934Z,20.02
2023-02-06T23:24:15.813Z,13.32
2023-02-06T23:26:45.609Z,12.23
2023-02-06T23:29:17.657Z,8.07
2023-02-06T23:31:45.566Z,18.33
2023-02-06T23:34:13.507Z,15.20
2023-02-06T23:36:40.154Z,10.73
2023-02-06T23:39:06.798Z,11.23
2023-02-06T23:41:33.910Z,9.93
2023-02-06T23:44:04.296Z,10.32
2023-02-06T23:46:32.918Z,18.73
2023-02-06T23:48:59.411Z,9.35
2023-02-06T23:51:26.659Z,10.23
2023-02-06T23:53:53.268Z,12.55
2023-02-06T23:56:23.058Z,13.68
2023-02-06T23:58:50.636Z,13.52
